Time;durP1;ratioP1;P1;durP2;ratioP2;P2;SDS_P1;SDS_P2;PMS_P1;PMS_P2;Temp;Humidity;BMP_temperature;BMP_pressure;BME280_temperature;BME280_humidity;BME280_pressure;Samples;Min_cycle;Max_cycle;Signal;HPM_P1;HPM_P2
2022/06/29 00:00:36;;;;;;;2.13;0.95;;;;;;;20.32;46.49;100303.84;4925464;28;20439;-72
2022/06/29 00:03:04;;;;;;;1.63;1.23;;;;;;;20.28;46.55;100303.28;4929614;28;20067;-75
2022/06/29 00:05:30;;;;;;;2.83;1.45;;;;;;;20.29;46.47;100301.47;4923941;28;20131;-75
2022/06/29 00:07:57;;;;;;;1.75;1.27;;;;;;;20.28;46.65;100303.28;4919468;28;20040;-74
2022/06/29 00:10:24;;;;;;;3.10;1.45;;;;;;;20.32;46.43;100296.63;4928149;28;20059;-73
2022/06/29 00:12:51;;;;;;;3.05;1.27;;;;;;;20.31;46.65;100299.44;4935618;28;20082;-74
2022/06/29 00:15:19;;;;;;;1.77;1.20;;;;;;;20.29;46.58;100296.94;4930704;28;20397;-74
2022/06/29 00:17:46;;;;;;;2.17;1.20;;;;;;;20.30;47.17;100292.41;4926191;28;20047;-76
2022/06/29 00:20:13;;;;;;;1.85;1.13;;;;;;;20.27;46.90;100292.66;4930123;28;20222;-75
2022/06/29 00:22:41;;;;;;;4.75;1.30;;;;;;;20.03;46.63;100249.97;4926072;28;20047;-73
2022/06/29 00:25:09;;;;;;;5.05;1.40;;;;;;;20.09;47.12;100264.72;4916484;29;20110;-72
2022/06/29 00:27:37;;;;;;;1.92;1.40;;;;;;;20.19;47.77;100277.19;4925571;29;20048;-74
2022/06/29 00:30:04;;;;;;;2.15;1.20;;;;;;;20.20;47.37;100280.75;4930943;28;20083;-75
2022/06/29 00:32:31;;;;;;;1.98;1.30;;;;;;;20.16;47.43;100273.94;4927239;28;20107;-74
2022/06/29 00:34:59;;;;;;;2.83;1.42;;;;;;;20.14;47.60;100273.25;4929230;28;20043;-74
2022/06/29 00:37:26;;;;;;;1.90;1.35;;;;;;;20.11;48.23;100273.50;4938381;28;20712;-74
2022/06/29 00:39:53;;;;;;;2.28;1.38;;;;;;;20.07;48.34;100272.91;4931337;29;20056;-76
2022/06/29 00:42:20;;;;;;;1.95;1.20;;;;;;;19.90;48.37;100258.28;4931970;28;20047;-74
2022/06/29 00:44:47;;;;;;;2.85;1.52;;;;;;;20.05;48.38;100271.34;4930998;28;20071;-75
2022/06/29 00:47:13;;;;;;;1.30;1.20;;;;;;;20.04;48.42;100269.66;4932210;28;20103;-76
2022/06/29 00:49:40;;;;;;;2.65;1.20;;;;;;;19.88;48.58;100254.88;4928248;28;20550;-75
2022/06/29 00:52:07;;;;;;;1.77;1.15;;;;;;;19.99;48.87;100271.91;4929042;28;20044;-76
2022/06/29 00:54:39;;;;;;;2.28;1.13;;;;;;;19.96;49.04;100265.81;4936382;28;20058;-75
2022/06/29 00:57:11;;;;;;;1.98;1.30;;;;;;;19.93;49.26;100267.91;4930947;29;20058;-73
2022/06/29 00:59:43;;;;;;;3.33;1.25;;;;;;;19.92;48.95;100271.59;4928928;28;20114;-75
2022/06/29 01:02:10;;;;;;;2.08;1.40;;;;;;;19.88;49.05;100262.94;4932291;28;20126;-74
2022/06/29 01:04:38;;;;;;;1.60;1.30;;;;;;;19.96;49.42;100271.19;4931342;28;20068;-76
2022/06/29 01:07:05;;;;;;;1.75;1.13;;;;;;;20.00;49.40;100265.53;4935938;28;20500;-76
2022/06/29 01:09:32;;;;;;;2.10;1.38;;;;;;;19.96;49.27;100260.44;4932663;28;20055;-76
2022/06/29 01:11:59;;;;;;;1.85;1.27;;;;;;;19.98;49.48;100276.44;4924988;28;20197;-74
2022/06/29 01:14:26;;;;;;;1.13;1.02;;;;;;;19.91;49.71;100265.34;4927742;28;20044;-74
2022/06/29 01:16:52;;;;;;;4.47;1.63;;;;;;;19.93;49.85;100273.28;4928305;28;20157;-75
2022/06/29 01:19:19;;;;;;;2.63;1.40;;;;;;;19.92;49.66;100263.53;4925795;28;20044;-73
2022/06/29 01:21:50;;;;;;;2.35;1.13;;;;;;;19.84;49.84;100242.69;4927955;28;20055;-76
2022/06/29 01:24:18;;;;;;;2.50;1.40;;;;;;;19.88;49.22;100252.19;4930501;28;20055;-72
2022/06/29 01:26:46;;;;;;;2.83;1.40;;;;;;;19.97;49.67;100263.97;4925221;28;20194;-73
2022/06/29 01:29:14;;;;;;;1.58;1.30;;;;;;;19.81;50.04;100242.13;4924232;28;20146;-73
2022/06/29 01:31:42;;;;;;;1.48;1.30;;;;;;;19.93;49.77;100258.03;4929450;28;20379;-74
2022/06/29 01:34:08;;;;;;;2.65;1.40;;;;;;;20.00;49.79;100260.16;4932796;28;20142;-74
2022/06/29 01:36:35;;;;;;;2.28;1.50;;;;;;;20.02;49.02;100253.66;4928699;28;20484;-73
2022/06/29 01:39:02;;;;;;;2.17;1.38;;;;;;;20.01;49.39;100264.53;4931043;28;20044;-74
2022/06/29 01:41:29;;;;;;;3.33;1.33;;;;;;;20.04;49.28;100265.13;4933770;29;20114;-74
2022/06/29 01:43:56;;;;;;;4.82;1.48;;;;;;;20.03;49.24;100265.25;4925391;28;20126;-75
2022/06/29 01:46:22;;;;;;;2.15;1.40;;;;;;;19.88;48.92;100237.91;4928673;28;20079;-76
2022/06/29 01:48:49;;;;;;;1.65;1.33;;;;;;;19.93;49.50;100246.41;4929459;28;20079;-73
2022/06/29 01:51:15;;;;;;;2.80;1.40;;;;;;;19.96;49.62;100251.53;4930006;28;20094;-73
2022/06/29 01:53:42;;;;;;;2.92;1.10;;;;;;;19.95;49.46;100252.50;4928387;29;20126;-75
2022/06/29 01:56:09;;;;;;;1.67;1.30;;;;;;;19.94;49.51;100253.50;4927547;28;20079;-76
2022/06/29 01:58:35;;;;;;;1.20;1.10;;;;;;;19.85;49.84;100235.47;4931522;28;20488;-73
2022/06/29 02:01:02;;;;;;;3.30;1.48;;;;;;;19.90;49.60;100250.22;4930701;28;20082;-74
2022/06/29 02:03:29;;;;;;;2.03;1.30;;;;;;;19.79;49.88;100219.91;4930112;28;20071;-76
2022/06/29 02:05:55;;;;;;;2.60;1.65;;;;;;;19.73;49.75;100205.16;4928270;28;20068;-73
2022/06/29 02:08:22;;;;;;;2.58;1.38;;;;;;;19.94;49.74;100242.75;4928982;28;20079;-73
2022/06/29 02:10:49;;;;;;;1.88;1.38;;;;;;;19.96;49.85;100246.16;4926556;28;20049;-76
2022/06/29 02:13:15;;;;;;;2.58;1.40;;;;;;;19.92;49.27;100239.34;4925917;28;20106;-74
2022/06/29 02:15:42;;;;;;;4.15;1.73;;;;;;;19.91;49.51;100230.41;4926626;28;20051;-74
2022/06/29 02:18:09;;;;;;;4.65;1.30;;;;;;;19.98;49.40;100237.97;4929055;28;20568;-73
2022/06/29 02:20:35;;;;;;;3.08;1.50;;;;;;;19.94;49.57;100232.84;4927910;28;20122;-73
2022/06/29 02:23:02;;;;;;;1.92;1.50;;;;;;;19.94;49.88;100238.22;4924076;29;20052;-73
2022/06/29 02:25:28;;;;;;;2.58;1.13;;;;;;;19.84;50.07;100220.34;4927794;28;20143;-74
2022/06/29 02:27:55;;;;;;;2.50;1.38;;;;;;;19.90;50.46;100230.56;4928650;28;20102;-73
2022/06/29 02:34:43;;;;;;;2.65;1.27;;;;;;;19.87;50.76;100225.44;4930355;28;20059;-73
2022/06/29 02:35:56;;;;;;;2.60;1.63;;;;;;;19.85;50.63;100222.88;4925677;28;20476;-74
2022/06/29 02:38:23;;;;;;;1.60;1.20;;;;;;;19.84;50.87;100229.25;4928794;28;20130;-73
2022/06/29 02:40:50;;;;;;;1.88;1.60;;;;;;;19.82;50.79;100230.41;4926054;28;20078;-74
2022/06/29 02:43:16;;;;;;;3.08;1.77;;;;;;;19.83;51.19;100227.53;4926991;28;20665;-74
2022/06/29 02:45:43;;;;;;;1.75;1.40;;;;;;;19.81;50.98;100231.38;4931463;28;20380;-74
2022/06/29 02:48:09;;;;;;;1.88;1.60;;;;;;;19.72;51.20;100226.78;4928390;28;20568;-74
2022/06/29 02:50:36;;;;;;;1.55;1.45;;;;;;;19.69;51.28;100222.53;4926858;28;20087;-75
2022/06/29 02:53:03;;;;;;;3.03;1.42;;;;;;;19.65;51.03;100223.81;4926593;28;20048;-73
2022/06/29 02:55:30;;;;;;;4.18;1.50;;;;;;;19.56;51.78;100213.84;4933978;29;20564;-74
2022/06/29 02:57:57;;;;;;;1.85;1.40;;;;;;;19.59;51.76;100218.97;4927902;28;20508;-73
2022/06/29 03:00:24;;;;;;;1.40;1.20;;;;;;;19.59;52.14;100219.81;4923748;28;20082;-73
2022/06/29 03:02:51;;;;;;;1.83;1.40;;;;;;;19.60;51.93;100218.84;4928107;28;20397;-74
2022/06/29 03:05:17;;;;;;;1.77;1.60;;;;;;;19.64;51.95;100222.09;4924531;29;20056;-73
2022/06/29 03:07:44;;;;;;;5.90;1.60;;;;;;;19.56;52.32;100211.16;4929196;28;20437;-73
2022/06/29 03:10:11;;;;;;;3.33;1.50;;;;;;;19.47;52.44;100203.88;4925451;28;20590;-73
2022/06/29 03:12:38;;;;;;;1.95;1.52;;;;;;;19.43;52.61;100205.13;4920585;28;20055;-73
2022/06/29 03:15:05;;;;;;;1.70;1.40;;;;;;;19.55;52.36;100225.56;4929723;28;20087;-74
2022/06/29 03:17:31;;;;;;;1.80;1.40;;;;;;;19.54;52.67;100215.81;4928982;28;20138;-73
2022/06/29 03:19:58;;;;;;;1.50;1.40;;;;;;;19.54;52.74;100222.03;4927298;28;20048;-74
2022/06/29 03:22:25;;;;;;;3.33;1.50;;;;;;;19.54;52.52;100219.34;4925945;28;20107;-75
2022/06/29 03:24:52;;;;;;;2.67;1.50;;;;;;;19.52;52.55;100215.09;4926863;28;20040;-73
2022/06/29 03:27:18;;;;;;;2.97;1.50;;;;;;;19.42;52.67;100206.13;4928279;28;20052;-74
2022/06/29 03:29:45;;;;;;;1.75;1.40;;;;;;;19.42;52.62;100198.06;4928838;28;20131;-73
2022/06/29 03:32:12;;;;;;;1.98;1.40;;;;;;;19.51;52.78;100225.03;4929469;28;20051;-72
2022/06/29 03:34:38;;;;;;;2.38;1.60;;;;;;;19.50;53.42;100222.47;4930831;28;20052;-73
2022/06/29 03:37:05;;;;;;;1.50;1.40;;;;;;;19.46;53.18;100219.16;4932369;28;20171;-74
2022/06/29 03:39:31;;;;;;;3.50;1.45;;;;;;;19.52;52.99;100226.69;4933150;28;20115;-76
2022/06/29 03:41:58;;;;;;;2.92;1.75;;;;;;;19.52;52.95;100221.31;4927569;28;20126;-73
2022/06/29 03:44:25;;;;;;;2.05;1.40;;;;;;;19.49;53.04;100218.03;4935999;28;20102;-73
2022/06/29 03:46:51;;;;;;;2.75;1.45;;;;;;;19.52;53.42;100218.63;4930554;28;20445;-73
2022/06/29 03:49:18;;;;;;;2.78;1.58;;;;;;;19.52;53.31;100210.56;4930566;28;20079;-74
2022/06/29 03:51:45;;;;;;;2.13;1.75;;;;;;;19.64;53.08;100215.88;4929864;29;20136;-74
2022/06/29 03:54:11;;;;;;;3.65;2.10;;;;;;;19.66;53.03;100220.16;4931971;28;20480;-74
2022/06/29 03:56:38;;;;;;;3.00;1.30;;;;;;;19.71;52.63;100219.72;4929200;28;20058;-74
2022/06/29 03:59:04;;;;;;;2.58;1.60;;;;;;;19.66;52.51;100214.78;4928864;28;20517;-74
2022/06/29 04:01:31;;;;;;;2.72;1.60;;;;;;;19.68;52.78;100217.28;4932003;28;20117;-74
2022/06/29 04:03:58;;;;;;;2.58;1.60;;;;;;;19.66;53.11;100212.09;4929976;28;20075;-73
2022/06/29 04:06:24;;;;;;;4.03;1.83;;;;;;;19.70;53.26;100212.63;4931270;28;20098;-73
2022/06/29 04:08:51;;;;;;;3.95;1.48;;;;;;;19.68;52.68;100203.88;4933340;28;20099;-73
2022/06/29 04:14:03;;;;;;;1.90;1.70;;;;;;;19.71;52.42;100201.75;4929574;29;20044;-74
2022/06/29 04:16:29;;;;;;;3.15;1.85;;;;;;;19.74;52.83;100209.56;4931998;28;20103;-74
2022/06/29 04:18:56;;;;;;;3.00;1.88;;;;;;;19.74;52.95;100201.50;4930361;28;20072;-73
2022/06/29 04:21:23;;;;;;;3.55;1.90;;;;;;;19.78;52.79;100200.25;4930082;28;20106;-72
2022/06/29 04:23:50;;;;;;;2.08;1.73;;;;;;;19.73;52.73;100198.94;4932504;28;20500;-73
2022/06/29 04:26:16;;;;;;;6.78;2.00;;;;;;;19.85;52.15;100206.75;4928098;28;20075;-75
2022/06/29 04:28:43;;;;;;;1.80;1.70;;;;;;;19.85;52.45;100201.38;4932353;28;20074;-72
2022/06/29 04:31:10;;;;;;;1.85;1.50;;;;;;;19.73;52.52;100188.19;4928638;29;20065;-73
2022/06/29 04:33:36;;;;;;;1.58;1.48;;;;;;;19.86;53.04;100199.56;4930463;28;20503;-73
2022/06/29 04:36:03;;;;;;;1.77;1.67;;;;;;;19.89;52.68;100197.47;4932298;28;20052;-74
2022/06/29 04:38:30;;;;;;;2.05;1.65;;;;;;;19.84;52.48;100197.00;4930640;28;20048;-72
2022/06/29 04:40:59;;;;;;;5.00;1.92;;;;;;;19.85;52.23;100196.00;4929101;28;20099;-73
2022/06/29 04:43:27;;;;;;;2.77;2.00;;;;;;;19.85;52.02;100198.72;4927638;28;20130;-74
2022/06/29 04:48:41;;;;;;;3.67;1.63;;;;;;;19.74;52.83;100196.13;4930839;28;20048;-73
2022/06/29 04:51:10;;;;;;;2.17;1.98;;;;;;;19.71;52.69;100182.09;4929604;28;20136;-75
2022/06/29 04:53:37;;;;;;;4.78;1.77;;;;;;;19.71;52.80;100195.53;4931238;28;20058;-74
2022/06/29 04:56:04;;;;;;;4.05;1.85;;;;;;;19.50;52.79;100171.44;4926110;28;20099;-74
2022/06/29 04:58:30;;;;;;;4.10;1.83;;;;;;;19.59;53.42;100197.47;4929291;28;20119;-73
2022/06/29 05:00:57;;;;;;;2.58;1.92;;;;;;;19.49;52.80;100170.59;4928784;28;20493;-74
2022/06/29 05:03:24;;;;;;;1.95;1.60;;;;;;;19.64;53.17;100192.56;4930450;28;20107;-73
2022/06/29 05:05:52;;;;;;;2.97;2.08;;;;;;;19.65;53.24;100188.03;4929876;28;20052;-73
2022/06/29 05:08:19;;;;;;;2.15;1.67;;;;;;;19.63;53.47;100198.91;4930616;28;20067;-74
2022/06/29 05:10:46;;;;;;;2.88;1.80;;;;;;;19.64;53.66;100192.56;4928467;28;20055;-74
2022/06/29 05:13:13;;;;;;;2.45;1.92;;;;;;;19.69;53.86;100192.97;4924709;28;20055;-74
2022/06/29 05:15:40;;;;;;;2.88;1.80;;;;;;;19.80;53.82;100202.81;4927022;28;20082;-74
2022/06/29 05:18:06;;;;;;;4.82;1.92;;;;;;;19.83;53.09;100181.88;4928509;28;20059;-74
2022/06/29 05:20:33;;;;;;;3.00;1.85;;;;;;;20.05;52.93;100188.03;4929645;28;20059;-74
2022/06/29 05:23:00;;;;;;;3.33;1.98;;;;;;;20.14;52.38;100189.91;4928759;28;20146;-73
2022/06/29 05:25:26;;;;;;;3.97;2.13;;;;;;;20.20;52.27;100194.72;4923299;28;20543;-73
2022/06/29 05:27:53;;;;;;;3.05;2.05;;;;;;;20.28;52.59;100189.50;4928489;29;20530;-74
2022/06/29 05:30:20;;;;;;;3.35;2.10;;;;;;;20.31;51.89;100173.91;4929280;28;20095;-74
2022/06/29 05:32:46;;;;;;;3.42;1.55;;;;;;;20.37;52.31;100169.88;4925250;28;20126;-74
2022/06/29 05:35:13;;;;;;;5.93;2.15;;;;;;;20.58;51.26;100183.19;4929560;28;20131;-74
2022/06/29 05:37:41;;;;;;;2.20;2.00;;;;;;;20.65;51.69;100190.53;4930270;28;20051;-73
2022/06/29 05:40:08;;;;;;;3.72;2.10;;;;;;;20.70;51.80;100194.66;4928164;28;20807;-74
2022/06/29 05:42:35;;;;;;;3.92;2.00;;;;;;;20.76;51.82;100191.41;4925894;28;20054;-73
2022/06/29 05:45:02;;;;;;;2.42;2.22;;;;;;;20.74;51.71;100182.63;4924354;29;20099;-73
2022/06/29 05:47:28;;;;;;;7.00;2.00;;;;;;;20.80;52.05;100192.81;4931134;28;20130;-73
2022/06/29 05:49:57;;;;;;;5.28;2.25;;;;;;;20.89;50.79;100187.44;4923118;28;20107;-72
2022/06/29 05:52:24;;;;;;;2.70;2.25;;;;;;;20.94;50.44;100187.00;4926324;28;20916;-73
2022/06/29 05:54:50;;;;;;;1.90;1.80;;;;;;;20.93;50.58;100167.31;4925332;28;20048;-73
2022/06/29 05:57:19;;;;;;;4.15;2.17;;;;;;;21.07;50.27;100174.09;4931638;28;20082;-73
2022/06/29 05:59:47;;;;;;;3.17;2.28;;;;;;;21.21;50.69;100186.28;4931482;28;20114;-73
2022/06/29 06:02:14;;;;;;;2.67;2.30;;;;;;;21.21;50.53;100162.91;4923174;29;20107;-74
2022/06/29 06:04:40;;;;;;;5.22;2.20;;;;;;;21.39;49.48;100176.47;4928390;28;20103;-74
2022/06/29 06:07:07;;;;;;;3.05;1.98;;;;;;;21.49;49.29;100184.50;4933960;28;20591;-74
2022/06/29 06:09:34;;;;;;;4.60;2.63;;;;;;;21.62;48.67;100185.03;4925418;28;20139;-75
2022/06/29 06:12:00;;;;;;;4.72;2.30;;;;;;;21.77;48.93;100182.69;4927517;28;20051;-74
2022/06/29 06:14:27;;;;;;;3.55;2.42;;;;;;;21.96;48.31;100182.59;4928975;28;20127;-74
2022/06/29 06:16:53;;;;;;;6.82;3.20;;;;;;;22.07;48.67;100177.03;4937988;28;20039;-74
2022/06/29 06:19:20;;;;;;;3.75;2.38;;;;;;;22.18;47.29;100154.41;4923874;29;20134;-75
2022/06/29 06:21:47;;;;;;;6.53;2.55;;;;;;;22.65;46.65;100179.34;4932669;28;20050;-74
2022/06/29 06:24:13;;;;;;;2.72;2.50;;;;;;;23.00;45.56;100182.00;4929217;28;20229;-74
2022/06/29 06:26:40;;;;;;;3.10;2.60;;;;;;;23.35;45.59;100173.00;4938597;28;20044;-74
2022/06/29 06:29:06;;;;;;;4.43;2.50;;;;;;;23.77;44.53;100177.63;4929222;28;20064;-74
2022/06/29 06:31:34;;;;;;;3.00;2.53;;;;;;;24.25;44.67;100173.44;4931097;28;20527;-75
2022/06/29 06:34:01;;;;;;;2.92;2.42;;;;;;;24.61;42.96;100182.16;4933226;28;21930;-73
2022/06/29 06:36:28;;;;;;;3.17;2.70;;;;;;;24.70;41.91;100171.19;4929972;28;20082;-73
2022/06/29 06:38:55;;;;;;;3.05;2.47;;;;;;;24.76;42.23;100178.59;4922614;28;20135;-74
2022/06/29 06:41:21;;;;;;;5.32;2.50;;;;;;;24.64;42.71;100179.97;4933289;28;20055;-74
2022/06/29 06:43:50;;;;;;;4.47;2.78;;;;;;;24.70;42.20;100190.13;4930952;28;20103;-75
2022/06/29 06:46:17;;;;;;;4.03;2.78;;;;;;;24.58;42.30;100194.16;4930750;28;20118;-75
2022/06/29 06:48:44;;;;;;;5.38;2.55;;;;;;;24.35;42.63;100195.81;4928820;28;20094;-77
2022/06/29 06:51:12;;;;;;;3.72;2.60;;;;;;;24.21;43.42;100191.84;4926829;28;20103;-74
2022/06/29 06:53:39;;;;;;;3.30;2.65;;;;;;;24.25;43.91;100201.34;4925762;28;20047;-74
2022/06/29 06:56:06;;;;;;;4.47;3.10;;;;;;;24.30;43.07;100200.88;4916899;28;20123;-75
2022/06/29 06:58:36;;;;;;;4.68;3.33;;;;;;;24.16;43.86;100204.16;4924451;29;20051;-74
2022/06/29 07:01:12;;;;;;;4.78;3.47;;;;;;;24.41;44.36;100208.66;4931472;28;20087;-73
2022/06/29 07:03:38;;;;;;;6.72;2.90;;;;;;;24.22;43.70;100176.47;4928276;28;20057;-74
2022/06/29 07:06:10;;;;;;;5.28;3.28;;;;;;;24.24;44.23;100201.53;4925680;28;20138;-74
2022/06/29 07:08:38;;;;;;;7.50;3.28;;;;;;;24.61;43.47;100207.38;4931243;28;20168;-75
2022/06/29 07:11:06;;;;;;;4.53;3.25;;;;;;;25.12;44.04;100203.53;4936114;28;20087;-75
2022/06/29 07:13:34;;;;;;;4.22;3.40;;;;;;;25.38;42.46;100187.06;4935716;28;20051;-73
2022/06/29 07:16:05;;;;;;;4.72;3.35;;;;;;;25.69;41.92;100195.31;4940035;28;20085;-73
2022/06/29 07:18:33;;;;;;;4.75;3.20;;;;;;;25.92;42.19;100187.28;4932633;28;20044;-74
2022/06/29 07:21:00;;;;;;;3.47;3.10;;;;;;;25.96;42.24;100182.38;4931255;28;20055;-74
2022/06/29 07:23:27;;;;;;;4.35;3.95;;;;;;;25.89;42.21;100192.22;4930596;28;20066;-73
2022/06/29 07:25:55;;;;;;;3.95;3.55;;;;;;;25.88;43.01;100177.81;4934405;28;20203;-74
2022/06/29 07:28:22;;;;;;;5.43;3.80;;;;;;;25.92;42.96;100189.16;4927739;28;20055;-74
2022/06/29 07:30:49;;;;;;;5.88;3.50;;;;;;;25.90;41.63;100175.75;4933765;28;20468;-75
2022/06/29 07:33:16;;;;;;;5.85;3.70;;;;;;;26.27;40.80;100175.06;4930586;28;20056;-74
2022/06/29 07:35:42;;;;;;;5.85;3.30;;;;;;;26.34;41.75;100180.66;4934683;28;20143;-74
2022/06/29 07:38:10;;;;;;;4.40;3.63;;;;;;;26.28;41.33;100174.06;4928085;28;20044;-74
2022/06/29 07:40:37;;;;;;;5.55;3.63;;;;;;;26.30;41.25;100173.88;4932165;28;20090;-74
2022/06/29 07:43:04;;;;;;;5.28;3.70;;;;;;;26.62;40.83;100160.09;4935125;28;20134;-74
2022/06/29 07:45:31;;;;;;;5.47;4.57;;;;;;;26.87;41.03;100163.47;4937076;28;20527;-74
2022/06/29 07:48:00;;;;;;;6.22;3.97;;;;;;;26.84;41.76;100170.13;4933756;28;20075;-74
2022/06/29 07:50:27;;;;;;;6.25;4.40;;;;;;;26.45;41.94;100145.78;4932725;28;20044;-74
2022/06/29 07:52:54;;;;;;;4.22;3.83;;;;;;;26.49;41.15;100168.00;4928972;28;20046;-74
2022/06/29 07:55:21;;;;;;;5.40;3.92;;;;;;;26.61;42.12;100149.41;4931135;28;20074;-73
2022/06/29 07:57:47;;;;;;;4.97;4.20;;;;;;;26.65;41.41;100164.31;4928476;28;20047;-75
2022/06/29 08:00:14;;;;;;;4.65;4.25;;;;;;;26.65;41.43;100162.44;4933248;28;20047;-76
2022/06/29 08:02:42;;;;;;;4.85;4.25;;;;;;;26.65;41.51;100164.31;4933776;28;20181;-74
2022/06/29 08:05:18;;;;;;;5.00;4.50;;;;;;;26.80;40.95;100155.19;4923354;29;20055;-74
2022/06/29 08:07:45;;;;;;;5.70;4.43;;;;;;;26.92;40.99;100161.03;4927314;28;20056;-75
2022/06/29 08:10:11;;;;;;;5.60;4.40;;;;;;;26.78;40.75;100154.53;4928583;28;20063;-73
2022/06/29 08:12:38;;;;;;;6.43;3.72;;;;;;;26.76;41.54;100162.00;4927291;28;20067;-74
2022/06/29 08:15:05;;;;;;;5.10;4.40;;;;;;;27.04;41.53;100162.34;4932112;29;20082;-74
2022/06/29 08:17:32;;;;;;;5.38;4.30;;;;;;;27.13;41.47;100152.22;4925701;28;20144;-72
2022/06/29 08:20:01;;;;;;;4.65;4.18;;;;;;;26.95;41.06;100151.72;4927064;28;20500;-71
2022/06/29 08:22:28;;;;;;;7.35;4.47;;;;;;;26.89;42.08;100148.69;4927179;29;20472;-76
2022/06/29 08:24:55;;;;;;;6.18;3.75;;;;;;;26.92;42.10;100152.88;4926448;28;20063;-74
2022/06/29 08:27:22;;;;;;;9.93;4.50;;;;;;;27.00;41.97;100154.72;4922497;29;20147;-79
2022/06/29 08:30:11;;;;;;;5.38;4.28;;;;;;;27.04;42.39;100142.47;4930297;28;20051;-78
2022/06/29 08:32:41;;;;;;;6.13;5.10;;;;;;;27.20;41.69;100148.59;4931200;28;20061;-78
2022/06/29 08:35:12;;;;;;;5.03;4.45;;;;;;;27.36;41.63;100150.31;4927872;29;20063;-78
2022/06/29 08:37:39;;;;;;;5.10;4.50;;;;;;;27.59;41.39;100142.06;4927347;29;20480;-80
2022/06/29 08:40:11;;;;;;;8.27;5.47;;;;;;;27.64;41.20;100126.03;4925601;28;20056;-77
2022/06/29 08:42:38;;;;;;;6.07;5.38;;;;;;;27.69;41.32;100131.75;4928539;29;20193;-80
2022/06/29 08:45:07;;;;;;;6.20;5.70;;;;;;;27.85;41.36;100149.75;4926478;29;20476;-76
2022/06/29 08:47:34;;;;;;;6.65;5.75;;;;;;;27.84;41.40;100150.78;4931708;28;20134;-76
2022/06/29 08:50:05;;;;;;;6.60;5.95;;;;;;;27.72;42.86;100130.53;4926603;29;20186;-76
2022/06/29 08:52:36;;;;;;;6.45;5.93;;;;;;;27.88;41.72;100138.47;4921952;29;20082;-72
2022/06/29 08:55:05;;;;;;;6.95;6.20;;;;;;;27.91;42.27;100119.91;4922855;28;20135;-70
2022/06/29 08:57:37;;;;;;;6.78;5.70;;;;;;;28.02;41.90;100134.88;4922232;28;20040;-71
2022/06/29 09:00:05;;;;;;;6.10;5.50;;;;;;;28.11;42.42;100136.47;4927269;28;20557;-73
2022/06/29 09:02:32;;;;;;;8.25;6.30;;;;;;;28.28;41.98;100131.66;4927863;28;20535;-76
2022/06/29 09:04:59;;;;;;;7.38;6.60;;;;;;;28.47;41.82;100132.91;4926429;28;20051;-74
2022/06/29 09:07:26;;;;;;;7.05;6.35;;;;;;;28.00;42.17;100127.97;4925830;28;20693;-74
2022/06/29 09:09:59;;;;;;;6.78;5.93;;;;;;;27.97;41.76;100112.00;4931311;28;20051;-78
2022/06/29 09:12:28;;;;;;;6.88;6.10;;;;;;;28.13;42.05;100117.22;4926140;28;20408;-75
2022/06/29 09:14:54;;;;;;;6.60;6.00;;;;;;;28.28;41.08;100124.34;4927422;28;20063;-77
2022/06/29 09:17:21;;;;;;;9.50;6.43;;;;;;;28.63;40.79;100135.38;4927467;28;20107;-74
2022/06/29 09:19:49;;;;;;;6.95;6.22;;;;;;;28.80;40.47;100109.59;4925497;29;20058;-70
2022/06/29 09:22:29;;;;;;;11.57;6.40;;;;;;;28.76;40.74;100130.06;4919467;28;20058;-70
2022/06/29 09:24:55;;;;;;;7.93;6.72;;;;;;;28.20;41.35;100116.28;4921859;28;20047;-70
2022/06/29 09:27:43;;;;;;;6.65;6.05;;;;;;;27.97;42.71;100129.19;4923546;28;20096;-70
2022/06/29 09:30:29;;;;;;;8.25;6.65;;;;;;;27.73;43.27;100124.91;4925765;28;20067;-71
2022/06/29 09:33:07;;;;;;;7.78;6.45;;;;;;;27.43;43.78;100126.75;4920054;28;20492;-72
2022/06/29 09:35:36;;;;;;;7.40;6.60;;;;;;;27.04;45.01;100131.59;4916024;28;20044;-73
2022/06/29 09:38:19;;;;;;;8.23;7.50;;;;;;;26.96;45.26;100131.66;4925485;28;20068;-71
2022/06/29 09:41:07;;;;;;;8.18;6.95;;;;;;;26.94;44.97;100117.41;4928563;28;20043;-71
2022/06/29 09:43:39;;;;;;;8.63;6.55;;;;;;;27.10;45.77;100125.41;4928956;28;20055;-70
2022/06/29 09:46:08;;;;;;;8.07;6.82;;;;;;;27.35;45.11;100123.28;4930592;28;20055;-71
2022/06/29 09:48:36;;;;;;;7.95;7.15;;;;;;;27.35;45.10;100110.53;4930266;28;20075;-71
2022/06/29 09:54:11;;;;;;;7.75;6.95;;;;;;;27.72;44.57;100120.47;4927103;28;20051;-70
2022/06/29 09:56:49;;;;;;;7.95;7.15;;;;;;;27.83;44.97;100116.44;4918466;29;20339;-71
2022/06/29 10:05:14;;;;;;;8.13;6.78;;;;;;;27.98;44.54;100094.66;4915270;28;20489;-71
2022/06/29 10:07:44;;;;;;;7.47;6.72;;;;;;;28.08;44.11;100109.63;4921067;29;20127;-71
2022/06/29 10:10:16;;;;;;;8.85;6.55;;;;;;;27.77;45.13;100101.72;4928248;28;20134;-72
2022/06/29 10:13:41;;;;;;;7.60;6.90;;;;;;;27.78;44.88;100111.56;4923361;28;20056;-71
2022/06/29 10:16:41;;;;;;;8.10;7.30;;;;;;;28.05;45.21;100111.88;4898519;29;20088;-71
2022/06/29 10:19:36;;;;;;;8.55;7.72;;;;;;;28.17;44.51;100107.66;4890923;29;20577;-71
2022/06/29 10:22:02;;;;;;;8.27;7.55;;;;;;;28.08;44.49;100108.78;4915103;28;20147;-71
2022/06/29 10:24:30;;;;;;;7.85;7.15;;;;;;;27.90;45.05;100106.47;4920052;28;20574;-69
2022/06/29 10:27:05;;;;;;;7.93;7.22;;;;;;;27.84;45.50;100104.53;4920384;29;20071;-69
2022/06/29 10:29:32;;;;;;;8.95;8.05;;;;;;;27.86;45.41;100106.00;4922465;28;20128;-77
2022/06/29 10:32:05;;;;;;;9.27;8.38;;;;;;;27.62;46.78;100081.84;4916481;28;20044;-70
2022/06/29 10:34:32;;;;;;;9.63;8.65;;;;;;;27.32;48.33;100099.19;4920677;28;20466;-71
2022/06/29 10:37:06;;;;;;;8.65;7.78;;;;;;;26.76;49.43;100091.38;4915852;28;20064;-71
2022/06/29 10:39:35;;;;;;;8.48;7.72;;;;;;;26.42;50.96;100086.44;4917120;29;20152;-72
2022/06/29 10:45:03;;;;;;;8.95;7.90;;;;;;;26.01;54.20;100096.69;4922316;28;20047;-72
2022/06/29 10:47:30;;;;;;;9.02;7.70;;;;;;;26.07;54.09;100090.53;4917166;28;20138;-74
2022/06/29 10:50:19;;;;;;;9.18;8.35;;;;;;;26.16;55.41;100086.75;4918670;28;20139;-74
2022/06/29 10:52:48;;;;;;;8.82;7.97;;;;;;;26.03;54.40;100083.78;4915427;28;20047;-74
2022/06/29 10:55:16;;;;;;;9.98;7.85;;;;;;;26.00;53.04;100084.13;4916824;28;20059;-73
2022/06/29 10:57:44;;;;;;;9.95;8.30;;;;;;;25.93;53.19;100085.88;4919332;28;20119;-74
2022/06/29 11:00:22;;;;;;;9.77;8.75;;;;;;;25.94;55.48;100087.56;4918894;28;20134;-73
2022/06/29 11:02:49;;;;;;;8.93;8.23;;;;;;;26.19;55.27;100077.41;4917090;29;20481;-73
2022/06/29 11:05:15;;;;;;;9.27;8.38;;;;;;;26.26;52.09;100075.66;4921863;28;20134;-74
2022/06/29 11:13:23;;;;;;;8.70;7.90;;;;;;;26.72;49.88;100068.34;4920404;29;20078;-75
2022/06/29 11:15:52;;;;;;;9.88;8.25;;;;;;;27.01;48.78;100061.31;4919396;29;20131;-72
2022/06/29 11:18:20;;;;;;;9.02;7.68;;;;;;;27.31;48.38;100068.44;4914545;28;20055;-72
2022/06/29 11:20:48;;;;;;;8.70;7.90;;;;;;;27.58;47.93;100056.91;4921380;28;20070;-73
2022/06/29 11:23:20;;;;;;;9.10;8.20;;;;;;;27.91;45.90;100059.19;4923489;28;20063;-73
2022/06/29 11:25:54;;;;;;;8.95;8.05;;;;;;;28.14;45.63;100054.44;4915815;28;20048;-73
2022/06/29 11:28:23;;;;;;;9.48;7.45;;;;;;;28.44;45.21;100059.75;4914220;28;20052;-74
2022/06/29 11:30:58;;;;;;;8.48;7.72;;;;;;;28.60;45.03;100052.16;4920093;29;20515;-76
2022/06/29 11:33:28;;;;;;;8.48;7.65;;;;;;;28.62;45.04;100049.25;4921964;28;20075;-74
2022/06/29 11:35:55;;;;;;;9.60;8.48;;;;;;;28.51;44.75;100038.84;4919889;29;20122;-75
2022/06/29 11:38:28;;;;;;;9.40;8.38;;;;;;;28.68;44.25;100053.03;4923638;28;20142;-73
2022/06/29 11:40:55;;;;;;;9.15;8.23;;;;;;;28.74;44.16;100061.28;4923799;29;20043;-72
2022/06/29 11:43:43;;;;;;;9.38;8.38;;;;;;;28.68;43.95;100053.88;4927601;28;20142;-73
2022/06/29 11:46:20;;;;;;;9.10;7.63;;;;;;;28.71;44.08;100053.50;4926547;28;20051;-74
2022/06/29 11:51:47;;;;;;;9.15;7.78;;;;;;;28.94;43.53;100042.38;4927529;28;20063;-74
2022/06/29 11:54:14;;;;;;;10.32;8.18;;;;;;;29.02;43.38;100046.81;4928095;28;21300;-72
2022/06/29 11:56:43;;;;;;;11.90;8.68;;;;;;;28.93;43.57;100022.47;4930719;28;20052;-75
2022/06/29 11:59:15;;;;;;;10.45;9.43;;;;;;;28.85;43.42;100022.59;4930831;28;20572;-73